sensor_id;sensor_type;location;lat;lon;timestamp;pressure;altitude;pressure_sealevel;temperature
15062;BMP180;7630;50.306;8.566;2023-04-03T00:03:50;98794.00;;;4.50
15062;BMP180;7630;50.306;8.566;2023-04-03T00:07:52;98794.00;;;5.20
15062;BMP180;7630;50.306;8.566;2023-04-03T00:11:53;98792.00;;;5.30
15062;BMP180;7630;50.306;8.566;2023-04-03T00:15:54;98776.00;;;5.10
15062;BMP180;7630;50.306;8.566;2023-04-03T00:19:55;98613.00;;;4.80
15062;BMP180;7630;50.306;8.566;2023-04-03T00:23:56;98785.00;;;4.80
15062;BMP180;7630;50.306;8.566;2023-04-03T00:27:58;98783.00;;;4.50
15062;BMP180;7630;50.306;8.566;2023-04-03T00:31:59;98781.00;;;4.70
15062;BMP180;7630;50.306;8.566;2023-04-03T00:36:05;98786.00;;;4.80
15062;BMP180;7630;50.306;8.566;2023-04-03T00:40:08;98784.00;;;4.80
15062;BMP180;7630;50.306;8.566;2023-04-03T00:44:20;98787.00;;;5.30
15062;BMP180;7630;50.306;8.566;2023-04-03T00:52:33;98782.00;;;4.70
15062;BMP180;7630;50.306;8.566;2023-04-03T00:56:35;98784.00;;;5.20
15062;BMP180;7630;50.306;8.566;2023-04-03T01:00:38;98781.00;;;5.40
15062;BMP180;7630;50.306;8.566;2023-04-03T01:04:42;98782.00;;;4.80
15062;BMP180;7630;50.306;8.566;2023-04-03T01:08:44;98780.00;;;5.10
15062;BMP180;7630;50.306;8.566;2023-04-03T01:12:49;98778.00;;;5.10
15062;BMP180;7630;50.306;8.566;2023-04-03T01:16:54;98778.00;;;4.60
15062;BMP180;7630;50.306;8.566;2023-04-03T01:25:09;98788.00;;;4.90
15062;BMP180;7630;50.306;8.566;2023-04-03T01:29:10;98776.00;;;5.00
15062;BMP180;7630;50.306;8.566;2023-04-03T01:33:12;98781.00;;;5.00
15062;BMP180;7630;50.306;8.566;2023-04-03T01:37:13;98802.00;;;5.00
15062;BMP180;7630;50.306;8.566;2023-04-03T01:41:14;98784.00;;;4.70
15062;BMP180;7630;50.306;8.566;2023-04-03T01:45:16;98788.00;;;5.10
15062;BMP180;7630;50.306;8.566;2023-04-03T01:49:17;98791.00;;;5.10
15062;BMP180;7630;50.306;8.566;2023-04-03T01:53:19;98791.00;;;4.60
15062;BMP180;7630;50.306;8.566;2023-04-03T01:57:19;98793.00;;;4.60
15062;BMP180;7630;50.306;8.566;2023-04-03T02:01:20;98802.00;;;4.30
15062;BMP180;7630;50.306;8.566;2023-04-03T02:05:22;98797.00;;;4.40
15062;BMP180;7630;50.306;8.566;2023-04-03T02:09:23;98793.00;;;4.70
15062;BMP180;7630;50.306;8.566;2023-04-03T02:13:24;98798.00;;;4.40
15062;BMP180;7630;50.306;8.566;2023-04-03T02:17:25;98799.00;;;4.40
15062;BMP180;7630;50.306;8.566;2023-04-03T02:21:27;98798.00;;;4.00
15062;BMP180;7630;50.306;8.566;2023-04-03T02:25:30;98792.00;;;4.20
15062;BMP180;7630;50.306;8.566;2023-04-03T02:29:32;98794.00;;;3.70
15062;BMP180;7630;50.306;8.566;2023-04-03T02:33:34;98785.00;;;3.80
15062;BMP180;7630;50.306;8.566;2023-04-03T02:37:37;98800.00;;;3.60
15062;BMP180;7630;50.306;8.566;2023-04-03T02:41:38;98802.00;;;3.40
15062;BMP180;7630;50.306;8.566;2023-04-03T02:45:39;98792.00;;;3.20
15062;BMP180;7630;50.306;8.566;2023-04-03T02:49:40;98777.00;;;3.20
15062;BMP180;7630;50.306;8.566;2023-04-03T02:53:41;98810.00;;;3.50
15062;BMP180;7630;50.306;8.566;2023-04-03T02:57:42;98791.00;;;3.50
15062;BMP180;7630;50.306;8.566;2023-04-03T03:01:43;98812.00;;;3.40
15062;BMP180;7630;50.306;8.566;2023-04-03T03:05:45;98617.00;;;3.60
15062;BMP180;7630;50.306;8.566;2023-04-03T03:09:46;98807.00;;;3.20
15062;BMP180;7630;50.306;8.566;2023-04-03T03:13:47;98793.00;;;3.30
15062;BMP180;7630;50.306;8.566;2023-04-03T03:17:48;98792.00;;;3.20
15062;BMP180;7630;50.306;8.566;2023-04-03T03:21:49;98796.00;;;3.30
15062;BMP180;7630;50.306;8.566;2023-04-03T03:25:57;98793.00;;;2.80
15062;BMP180;7630;50.306;8.566;2023-04-03T03:29:58;98797.00;;;2.80
15062;BMP180;7630;50.306;8.566;2023-04-03T03:33:59;98799.00;;;2.70
15062;BMP180;7630;50.306;8.566;2023-04-03T03:38:00;98802.00;;;2.80
15062;BMP180;7630;50.306;8.566;2023-04-03T03:42:02;98799.00;;;2.40
15062;BMP180;7630;50.306;8.566;2023-04-03T03:46:03;98836.00;;;2.40
15062;BMP180;7630;50.306;8.566;2023-04-03T03:50:05;98804.00;;;2.20
15062;BMP180;7630;50.306;8.566;2023-04-03T03:54:07;98799.00;;;2.10
15062;BMP180;7630;50.306;8.566;2023-04-03T03:58:08;98806.00;;;1.90
15062;BMP180;7630;50.306;8.566;2023-04-03T04:02:11;98812.00;;;2.00
15062;BMP180;7630;50.306;8.566;2023-04-03T04:06:12;98810.00;;;1.30
15062;BMP180;7630;50.306;8.566;2023-04-03T04:10:13;98808.00;;;1.50
15062;BMP180;7630;50.306;8.566;2023-04-03T04:14:14;98809.00;;;1.40
15062;BMP180;7630;50.306;8.566;2023-04-03T04:18:16;98811.00;;;1.20
15062;BMP180;7630;50.306;8.566;2023-04-03T04:22:18;98811.00;;;1.30
15062;BMP180;7630;50.306;8.566;2023-04-03T04:26:19;98802.00;;;0.80
15062;BMP180;7630;50.306;8.566;2023-04-03T04:30:21;98807.00;;;1.10
15062;BMP180;7630;50.306;8.566;2023-04-03T04:34:22;98813.00;;;0.80
15062;BMP180;7630;50.306;8.566;2023-04-03T04:38:23;98811.00;;;0.60
15062;BMP180;7630;50.306;8.566;2023-04-03T04:42:24;98810.00;;;0.70
15062;BMP180;7630;50.306;8.566;2023-04-03T04:46:26;98826.00;;;0.60
15062;BMP180;7630;50.306;8.566;2023-04-03T04:50:27;98814.00;;;0.30
15062;BMP180;7630;50.306;8.566;2023-04-03T04:54:28;98809.00;;;0.50
15062;BMP180;7630;50.306;8.566;2023-04-03T04:58:30;98818.00;;;0.50
15062;BMP180;7630;50.306;8.566;2023-04-03T05:02:31;98824.00;;;0.40
15062;BMP180;7630;50.306;8.566;2023-04-03T05:06:32;98828.00;;;0.30
15062;BMP180;7630;50.306;8.566;2023-04-03T05:10:34;98818.00;;;0.30
15062;BMP180;7630;50.306;8.566;2023-04-03T05:14:35;98825.00;;;0.20
15062;BMP180;7630;50.306;8.566;2023-04-03T05:18:36;98838.00;;;0.30
15062;BMP180;7630;50.306;8.566;2023-04-03T05:22:38;98837.00;;;0.40
15062;BMP180;7630;50.306;8.566;2023-04-03T05:26:39;98829.00;;;0.00
15062;BMP180;7630;50.306;8.566;2023-04-03T05:30:40;98841.00;;;0.20
15062;BMP180;7630;50.306;8.566;2023-04-03T05:34:41;98841.00;;;0.00
15062;BMP180;7630;50.306;8.566;2023-04-03T05:38:42;98843.00;;;0.00
15062;BMP180;7630;50.306;8.566;2023-04-03T05:42:44;98848.00;;;0.40
15062;BMP180;7630;50.306;8.566;2023-04-03T05:46:45;98851.00;;;-0.10
15062;BMP180;7630;50.306;8.566;2023-04-03T05:54:56;98850.00;;;0.30
15062;BMP180;7630;50.306;8.566;2023-04-03T05:58:57;98860.00;;;0.20
15062;BMP180;7630;50.306;8.566;2023-04-03T06:02:59;98871.00;;;-0.10
15062;BMP180;7630;50.306;8.566;2023-04-03T06:07:00;98865.00;;;-0.10
15062;BMP180;7630;50.306;8.566;2023-04-03T06:11:01;98862.00;;;0.20
15062;BMP180;7630;50.306;8.566;2023-04-03T06:15:04;98871.00;;;0.20
15062;BMP180;7630;50.306;8.566;2023-04-03T06:19:07;98826.00;;;0.00
15062;BMP180;7630;50.306;8.566;2023-04-03T06:23:08;98878.00;;;0.50
15062;BMP180;7630;50.306;8.566;2023-04-03T06:27:10;98900.00;;;0.50
15062;BMP180;7630;50.306;8.566;2023-04-03T06:31:12;98887.00;;;0.50
15062;BMP180;7630;50.306;8.566;2023-04-03T06:35:13;98906.00;;;0.40
15062;BMP180;7630;50.306;8.566;2023-04-03T06:39:17;98895.00;;;0.40
15062;BMP180;7630;50.306;8.566;2023-04-03T06:43:19;98906.00;;;0.30
15062;BMP180;7630;50.306;8.566;2023-04-03T06:47:20;98903.00;;;0.80
15062;BMP180;7630;50.306;8.566;2023-04-03T06:51:23;98899.00;;;0.60
15062;BMP180;7630;50.306;8.566;2023-04-03T06:55:25;98918.00;;;0.70
15062;BMP180;7630;50.306;8.566;2023-04-03T06:59:26;98922.00;;;0.80
15062;BMP180;7630;50.306;8.566;2023-04-03T07:03:28;98924.00;;;0.90
15062;BMP180;7630;50.306;8.566;2023-04-03T07:07:29;98935.00;;;0.90
15062;BMP180;7630;50.306;8.566;2023-04-03T07:11:30;98935.00;;;0.80
15062;BMP180;7630;50.306;8.566;2023-04-03T07:15:31;98958.00;;;1.00
15062;BMP180;7630;50.306;8.566;2023-04-03T07:19:32;98914.00;;;0.90
15062;BMP180;7630;50.306;8.566;2023-04-03T07:23:33;98937.00;;;1.20
15062;BMP180;7630;50.306;8.566;2023-04-03T07:27:35;98955.00;;;1.30
15062;BMP180;7630;50.306;8.566;2023-04-03T07:31:36;98947.00;;;1.40
15062;BMP180;7630;50.306;8.566;2023-04-03T07:35:37;98945.00;;;1.40
15062;BMP180;7630;50.306;8.566;2023-04-03T07:39:39;98968.00;;;1.50
15062;BMP180;7630;50.306;8.566;2023-04-03T07:43:40;98967.00;;;1.60
15062;BMP180;7630;50.306;8.566;2023-04-03T07:47:43;98949.00;;;1.30
15062;BMP180;7630;50.306;8.566;2023-04-03T07:51:45;98980.00;;;1.70
15062;BMP180;7630;50.306;8.566;2023-04-03T07:55:47;98967.00;;;1.80
15062;BMP180;7630;50.306;8.566;2023-04-03T07:59:48;98979.00;;;2.00
15062;BMP180;7630;50.306;8.566;2023-04-03T08:03:49;98987.00;;;1.80
15062;BMP180;7630;50.306;8.566;2023-04-03T08:07:51;98996.00;;;1.90
15062;BMP180;7630;50.306;8.566;2023-04-03T08:11:53;98985.00;;;2.30
15062;BMP180;7630;50.306;8.566;2023-04-03T08:15:54;98977.00;;;1.80
15062;BMP180;7630;50.306;8.566;2023-04-03T08:19:58;98992.00;;;2.20
15062;BMP180;7630;50.306;8.566;2023-04-03T08:23:59;98979.00;;;2.40
15062;BMP180;7630;50.306;8.566;2023-04-03T08:28:00;98992.00;;;2.30
15062;BMP180;7630;50.306;8.566;2023-04-03T08:32:03;98970.00;;;2.40
15062;BMP180;7630;50.306;8.566;2023-04-03T08:36:22;98972.00;;;2.40
15062;BMP180;7630;50.306;8.566;2023-04-03T08:40:24;98985.00;;;2.50
15062;BMP180;7630;50.306;8.566;2023-04-03T08:44:35;98968.00;;;2.30
15062;BMP180;7630;50.306;8.566;2023-04-03T08:48:39;98976.00;;;2.60
15062;BMP180;7630;50.306;8.566;2023-04-03T08:52:57;98982.00;;;2.70
15062;BMP180;7630;50.306;8.566;2023-04-03T08:57:02;98991.00;;;2.70
15062;BMP180;7630;50.306;8.566;2023-04-03T09:05:57;98985.00;;;2.30
15062;BMP180;7630;50.306;8.566;2023-04-03T09:09:49;98983.00;;;3.60
15062;BMP180;7630;50.306;8.566;2023-04-03T09:14:17;98986.00;;;3.10
15062;BMP180;7630;50.306;8.566;2023-04-03T09:18:23;99009.00;;;2.90
15062;BMP180;7630;50.306;8.566;2023-04-03T09:22:28;98967.00;;;2.80
15062;BMP180;7630;50.306;8.566;2023-04-03T09:30:51;98988.00;;;3.40
15062;BMP180;7630;50.306;8.566;2023-04-03T09:34:54;98977.00;;;4.10
15062;BMP180;7630;50.306;8.566;2023-04-03T09:39:04;98975.00;;;2.80
15062;BMP180;7630;50.306;8.566;2023-04-03T09:43:24;98995.00;;;3.80
15062;BMP180;7630;50.306;8.566;2023-04-03T09:47:31;98995.00;;;3.90
15062;BMP180;7630;50.306;8.566;2023-04-03T09:51:34;98989.00;;;3.20
15062;BMP180;7630;50.306;8.566;2023-04-03T09:55:41;98986.00;;;4.00
15062;BMP180;7630;50.306;8.566;2023-04-03T09:59:56;99000.00;;;4.30
15062;BMP180;7630;50.306;8.566;2023-04-03T10:12:19;98987.00;;;3.90
15062;BMP180;7630;50.306;8.566;2023-04-03T10:16:27;98997.00;;;3.80
15062;BMP180;7630;50.306;8.566;2023-04-03T10:20:37;98978.00;;;4.50
15062;BMP180;7630;50.306;8.566;2023-04-03T10:38:20;98987.00;;;4.00
15062;BMP180;7630;50.306;8.566;2023-04-03T10:42:34;98962.00;;;4.40
15062;BMP180;7630;50.306;8.566;2023-04-03T10:50:53;98967.00;;;5.40
15062;BMP180;7630;50.306;8.566;2023-04-03T10:59:15;98968.00;;;4.30
15062;BMP180;7630;50.306;8.566;2023-04-03T11:07:30;98959.00;;;6.10
15062;BMP180;7630;50.306;8.566;2023-04-03T11:11:38;98954.00;;;4.60
15062;BMP180;7630;50.306;8.566;2023-04-03T11:15:40;98955.00;;;4.50
15062;BMP180;7630;50.306;8.566;2023-04-03T11:24:29;98944.00;;;5.20
15062;BMP180;7630;50.306;8.566;2023-04-03T11:28:27;98941.00;;;5.30
15062;BMP180;7630;50.306;8.566;2023-04-03T11:36:48;98936.00;;;5.00
15062;BMP180;7630;50.306;8.566;2023-04-03T11:40:50;98955.00;;;5.00
15062;BMP180;7630;50.306;8.566;2023-04-03T11:45:37;98943.00;;;4.40
15062;BMP180;7630;50.306;8.566;2023-04-03T11:49:00;98924.00;;;4.20
15062;BMP180;7630;50.306;8.566;2023-04-03T11:57:44;98930.00;;;5.50
15062;BMP180;7630;50.306;8.566;2023-04-03T12:01:54;98941.00;;;5.60
15062;BMP180;7630;50.306;8.566;2023-04-03T12:10:18;98934.00;;;4.50
15062;BMP180;7630;50.306;8.566;2023-04-03T12:14:23;98908.00;;;5.30
15062;BMP180;7630;50.306;8.566;2023-04-03T12:22:34;98893.00;;;5.50
15062;BMP180;7630;50.306;8.566;2023-04-03T12:26:44;98924.00;;;6.10
15062;BMP180;7630;50.306;8.566;2023-04-03T12:30:49;98908.00;;;6.90
15062;BMP180;7630;50.306;8.566;2023-04-03T12:47:33;98928.00;;;6.90
15062;BMP180;7630;50.306;8.566;2023-04-03T12:51:42;98915.00;;;7.20
15062;BMP180;7630;50.306;8.566;2023-04-03T12:55:43;98906.00;;;6.20
15062;BMP180;7630;50.306;8.566;2023-04-03T12:59:45;98892.00;;;5.70
15062;BMP180;7630;50.306;8.566;2023-04-03T13:03:50;98865.00;;;5.90
15062;BMP180;7630;50.306;8.566;2023-04-03T13:08:00;98884.00;;;6.70
15062;BMP180;7630;50.306;8.566;2023-04-03T13:12:14;98892.00;;;5.90
15062;BMP180;7630;50.306;8.566;2023-04-03T13:16:16;98891.00;;;6.90
15062;BMP180;7630;50.306;8.566;2023-04-03T13:24:23;98884.00;;;7.20
15062;BMP180;7630;50.306;8.566;2023-04-03T13:28:25;98890.00;;;7.90
15062;BMP180;7630;50.306;8.566;2023-04-03T13:32:28;98876.00;;;8.90
15062;BMP180;7630;50.306;8.566;2023-04-03T13:36:33;98881.00;;;8.60
15062;BMP180;7630;50.306;8.566;2023-04-03T13:40:46;98882.00;;;8.00
15062;BMP180;7630;50.306;8.566;2023-04-03T13:44:41;98879.00;;;8.00
15062;BMP180;7630;50.306;8.566;2023-04-03T13:48:49;98881.00;;;7.20
15062;BMP180;7630;50.306;8.566;2023-04-03T13:53:00;98866.00;;;5.90
15062;BMP180;7630;50.306;8.566;2023-04-03T13:57:02;98882.00;;;6.50
15062;BMP180;7630;50.306;8.566;2023-04-03T14:01:17;98866.00;;;8.30
15062;BMP180;7630;50.306;8.566;2023-04-03T14:05:15;98858.00;;;6.90
15062;BMP180;7630;50.306;8.566;2023-04-03T14:09:18;98844.00;;;7.30
15062;BMP180;7630;50.306;8.566;2023-04-03T14:13:20;98851.00;;;8.40
15062;BMP180;7630;50.306;8.566;2023-04-03T14:17:24;98873.00;;;6.30
15062;BMP180;7630;50.306;8.566;2023-04-03T14:21:26;98853.00;;;6.30
15062;BMP180;7630;50.306;8.566;2023-04-03T14:25:27;98864.00;;;6.70
15062;BMP180;7630;50.306;8.566;2023-04-03T14:29:28;98856.00;;;6.80
15062;BMP180;7630;50.306;8.566;2023-04-03T14:33:29;98843.00;;;6.50
15062;BMP180;7630;50.306;8.566;2023-04-03T14:37:32;98821.00;;;8.40
15062;BMP180;7630;50.306;8.566;2023-04-03T14:41:34;98835.00;;;8.60
15062;BMP180;7630;50.306;8.566;2023-04-03T14:45:36;98831.00;;;8.20
15062;BMP180;7630;50.306;8.566;2023-04-03T14:49:37;98852.00;;;6.80
15062;BMP180;7630;50.306;8.566;2023-04-03T14:53:38;98828.00;;;6.60
15062;BMP180;7630;50.306;8.566;2023-04-03T14:57:40;98834.00;;;6.10
15062;BMP180;7630;50.306;8.566;2023-04-03T15:01:41;98829.00;;;6.20
15062;BMP180;7630;50.306;8.566;2023-04-03T15:05:44;98834.00;;;6.60
15062;BMP180;7630;50.306;8.566;2023-04-03T15:09:45;98826.00;;;6.60
15062;BMP180;7630;50.306;8.566;2023-04-03T15:13:47;98841.00;;;6.00
15062;BMP180;7630;50.306;8.566;2023-04-03T15:17:51;98844.00;;;6.60
15062;BMP180;7630;50.306;8.566;2023-04-03T15:21:54;98839.00;;;6.00
15062;BMP180;7630;50.306;8.566;2023-04-03T15:25:55;98845.00;;;6.00
15062;BMP180;7630;50.306;8.566;2023-04-03T15:29:57;98836.00;;;6.00
15062;BMP180;7630;50.306;8.566;2023-04-03T15:33:59;98826.00;;;6.40
15062;BMP180;7630;50.306;8.566;2023-04-03T15:38:00;98805.00;;;5.90
15062;BMP180;7630;50.306;8.566;2023-04-03T15:42:02;98826.00;;;7.40
15062;BMP180;7630;50.306;8.566;2023-04-03T15:46:05;98844.00;;;7.20
15062;BMP180;7630;50.306;8.566;2023-04-03T15:50:07;98815.00;;;7.90
15062;BMP180;7630;50.306;8.566;2023-04-03T15:54:08;98810.00;;;6.80
15062;BMP180;7630;50.306;8.566;2023-04-03T15:58:10;98823.00;;;6.00
15062;BMP180;7630;50.306;8.566;2023-04-03T16:02:12;98818.00;;;5.80
15062;BMP180;7630;50.306;8.566;2023-04-03T16:06:14;98811.00;;;5.90
15062;BMP180;7630;50.306;8.566;2023-04-03T16:10:17;98837.00;;;6.60
15062;BMP180;7630;50.306;8.566;2023-04-03T16:14:19;98826.00;;;5.80
15062;BMP180;7630;50.306;8.566;2023-04-03T16:18:20;98691.00;;;5.70
15062;BMP180;7630;50.306;8.566;2023-04-03T16:22:23;98812.00;;;5.40
15062;BMP180;7630;50.306;8.566;2023-04-03T16:26:25;98826.00;;;5.70
15062;BMP180;7630;50.306;8.566;2023-04-03T16:30:27;98825.00;;;5.60
15062;BMP180;7630;50.306;8.566;2023-04-03T16:34:28;98830.00;;;5.80
15062;BMP180;7630;50.306;8.566;2023-04-03T16:38:31;98810.00;;;5.50
15062;BMP180;7630;50.306;8.566;2023-04-03T16:42:32;98822.00;;;5.30
15062;BMP180;7630;50.306;8.566;2023-04-03T16:46:35;98823.00;;;5.30
15062;BMP180;7630;50.306;8.566;2023-04-03T16:50:36;98817.00;;;5.90
15062;BMP180;7630;50.306;8.566;2023-04-03T16:54:38;98823.00;;;5.00
15062;BMP180;7630;50.306;8.566;2023-04-03T16:58:39;98837.00;;;5.20
15062;BMP180;7630;50.306;8.566;2023-04-03T17:02:40;98837.00;;;5.40
15062;BMP180;7630;50.306;8.566;2023-04-03T17:06:41;98842.00;;;5.40
15062;BMP180;7630;50.306;8.566;2023-04-03T17:10:42;98845.00;;;6.00
15062;BMP180;7630;50.306;8.566;2023-04-03T17:14:43;98843.00;;;5.70
15062;BMP180;7630;50.306;8.566;2023-04-03T17:18:45;98840.00;;;6.40
15062;BMP180;7630;50.306;8.566;2023-04-03T17:22:46;98851.00;;;6.80
15062;BMP180;7630;50.306;8.566;2023-04-03T17:26:47;98840.00;;;5.60
15062;BMP180;7630;50.306;8.566;2023-04-03T17:30:48;98846.00;;;5.10
15062;BMP180;7630;50.306;8.566;2023-04-03T17:34:50;98856.00;;;4.90
15062;BMP180;7630;50.306;8.566;2023-04-03T17:38:51;98853.00;;;4.70
15062;BMP180;7630;50.306;8.566;2023-04-03T17:42:52;98854.00;;;4.70
15062;BMP180;7630;50.306;8.566;2023-04-03T17:46:53;98860.00;;;6.10
15062;BMP180;7630;50.306;8.566;2023-04-03T17:50:54;98860.00;;;5.50
15062;BMP180;7630;50.306;8.566;2023-04-03T17:54:55;98865.00;;;6.10
15062;BMP180;7630;50.306;8.566;2023-04-03T17:58:57;98860.00;;;6.10
15062;BMP180;7630;50.306;8.566;2023-04-03T18:02:58;98862.00;;;5.90
15062;BMP180;7630;50.306;8.566;2023-04-03T18:07:00;98868.00;;;5.70
15062;BMP180;7630;50.306;8.566;2023-04-03T18:11:02;98861.00;;;6.50
15062;BMP180;7630;50.306;8.566;2023-04-03T18:15:05;98866.00;;;5.70
15062;BMP180;7630;50.306;8.566;2023-04-03T18:19:06;98863.00;;;5.70
15062;BMP180;7630;50.306;8.566;2023-04-03T18:23:11;98861.00;;;5.30
15062;BMP180;7630;50.306;8.566;2023-04-03T18:27:13;98866.00;;;5.90
15062;BMP180;7630;50.306;8.566;2023-04-03T18:31:16;98876.00;;;6.20
15062;BMP180;7630;50.306;8.566;2023-04-03T18:35:18;98874.00;;;5.70
15062;BMP180;7630;50.306;8.566;2023-04-03T18:39:19;98865.00;;;4.20
15062;BMP180;7630;50.306;8.566;2023-04-03T18:43:22;98867.00;;;5.20
15062;BMP180;7630;50.306;8.566;2023-04-03T18:47:26;98868.00;;;5.20
15062;BMP180;7630;50.306;8.566;2023-04-03T18:51:28;98866.00;;;5.10
15062;BMP180;7630;50.306;8.566;2023-04-03T18:55:29;98877.00;;;6.00
15062;BMP180;7630;50.306;8.566;2023-04-03T18:59:31;98874.00;;;6.00
15062;BMP180;7630;50.306;8.566;2023-04-03T19:03:34;98886.00;;;4.90
15062;BMP180;7630;50.306;8.566;2023-04-03T19:07:36;98883.00;;;5.80
15062;BMP180;7630;50.306;8.566;2023-04-03T19:11:39;98890.00;;;5.20
15062;BMP180;7630;50.306;8.566;2023-04-03T19:15:40;98913.00;;;5.20
15062;BMP180;7630;50.306;8.566;2023-04-03T19:19:42;98897.00;;;5.10
15062;BMP180;7630;50.306;8.566;2023-04-03T19:23:43;98899.00;;;5.00
15062;BMP180;7630;50.306;8.566;2023-04-03T19:27:44;98893.00;;;4.50
15062;BMP180;7630;50.306;8.566;2023-04-03T19:31:46;98909.00;;;4.90
15062;BMP180;7630;50.306;8.566;2023-04-03T19:35:47;98909.00;;;4.80
15062;BMP180;7630;50.306;8.566;2023-04-03T19:39:48;98910.00;;;3.90
15062;BMP180;7630;50.306;8.566;2023-04-03T19:43:51;98902.00;;;3.60
15062;BMP180;7630;50.306;8.566;2023-04-03T19:47:53;98922.00;;;4.30
15062;BMP180;7630;50.306;8.566;2023-04-03T19:51:54;98909.00;;;4.70
15062;BMP180;7630;50.306;8.566;2023-04-03T19:55:56;98911.00;;;4.40
15062;BMP180;7630;50.306;8.566;2023-04-03T19:59:57;98906.00;;;3.50
15062;BMP180;7630;50.306;8.566;2023-04-03T20:03:59;98898.00;;;4.00
15062;BMP180;7630;50.306;8.566;2023-04-03T20:08:00;98908.00;;;4.10
15062;BMP180;7630;50.306;8.566;2023-04-03T20:12:02;98908.00;;;4.70
15062;BMP180;7630;50.306;8.566;2023-04-03T20:16:04;98910.00;;;4.00
15062;BMP180;7630;50.306;8.566;2023-04-03T20:20:08;98919.00;;;4.00
15062;BMP180;7630;50.306;8.566;2023-04-03T20:24:10;98910.00;;;3.60
15062;BMP180;7630;50.306;8.566;2023-04-03T20:28:14;98908.00;;;3.60
15062;BMP180;7630;50.306;8.566;2023-04-03T20:32:17;98918.00;;;4.00
15062;BMP180;7630;50.306;8.566;2023-04-03T20:36:19;98918.00;;;3.90
15062;BMP180;7630;50.306;8.566;2023-04-03T20:40:20;98912.00;;;4.10
15062;BMP180;7630;50.306;8.566;2023-04-03T20:44:22;98922.00;;;4.90
15062;BMP180;7630;50.306;8.566;2023-04-03T20:48:23;98905.00;;;3.60
15062;BMP180;7630;50.306;8.566;2023-04-03T20:52:24;98919.00;;;3.70
15062;BMP180;7630;50.306;8.566;2023-04-03T20:56:31;98923.00;;;4.30
15062;BMP180;7630;50.306;8.566;2023-04-03T21:00:36;98911.00;;;3.30
15062;BMP180;7630;50.306;8.566;2023-04-03T21:04:49;98909.00;;;3.50
15062;BMP180;7630;50.306;8.566;2023-04-03T21:22:11;98903.00;;;3.40
15062;BMP180;7630;50.306;8.566;2023-04-03T21:26:14;98894.00;;;3.20
15062;BMP180;7630;50.306;8.566;2023-04-03T21:30:15;98898.00;;;3.50
15062;BMP180;7630;50.306;8.566;2023-04-03T21:34:17;98895.00;;;2.90
15062;BMP180;7630;50.306;8.566;2023-04-03T21:38:19;98878.00;;;3.80
15062;BMP180;7630;50.306;8.566;2023-04-03T21:42:21;98868.00;;;2.80
15062;BMP180;7630;50.306;8.566;2023-04-03T21:46:22;98867.00;;;3.90
15062;BMP180;7630;50.306;8.566;2023-04-03T21:50:24;98886.00;;;4.20
15062;BMP180;7630;50.306;8.566;2023-04-03T21:54:25;98885.00;;;4.20
15062;BMP180;7630;50.306;8.566;2023-04-03T21:58:28;98888.00;;;3.50
15062;BMP180;7630;50.306;8.566;2023-04-03T22:02:32;98883.00;;;4.40
15062;BMP180;7630;50.306;8.566;2023-04-03T22:06:35;98877.00;;;3.90
15062;BMP180;7630;50.306;8.566;2023-04-03T22:10:37;98875.00;;;3.00
15062;BMP180;7630;50.306;8.566;2023-04-03T22:14:40;98877.00;;;3.50
15062;BMP180;7630;50.306;8.566;2023-04-03T22:18:42;98876.00;;;3.00
15062;BMP180;7630;50.306;8.566;2023-04-03T22:22:43;98879.00;;;3.30
15062;BMP180;7630;50.306;8.566;2023-04-03T22:26:44;98876.00;;;3.50
15062;BMP180;7630;50.306;8.566;2023-04-03T22:30:46;98870.00;;;3.50
15062;BMP180;7630;50.306;8.566;2023-04-03T22:34:47;98863.00;;;3.70
15062;BMP180;7630;50.306;8.566;2023-04-03T22:38:48;98868.00;;;4.10
15062;BMP180;7630;50.306;8.566;2023-04-03T22:42:49;98873.00;;;4.00
15062;BMP180;7630;50.306;8.566;2023-04-03T22:46:50;98868.00;;;3.50
15062;BMP180;7630;50.306;8.566;2023-04-03T22:50:52;98872.00;;;3.60
15062;BMP180;7630;50.306;8.566;2023-04-03T22:54:53;98878.00;;;2.50
15062;BMP180;7630;50.306;8.566;2023-04-03T22:58:54;98868.00;;;1.80
15062;BMP180;7630;50.306;8.566;2023-04-03T23:02:58;98864.00;;;1.80
15062;BMP180;7630;50.306;8.566;2023-04-03T23:07:00;98865.00;;;2.50
15062;BMP180;7630;50.306;8.566;2023-04-03T23:11:02;98864.00;;;2.80
15062;BMP180;7630;50.306;8.566;2023-04-03T23:15:04;98874.00;;;3.00
15062;BMP180;7630;50.306;8.566;2023-04-03T23:19:05;98866.00;;;1.60
15062;BMP180;7630;50.306;8.566;2023-04-03T23:23:07;98872.00;;;2.20
15062;BMP180;7630;50.306;8.566;2023-04-03T23:27:08;98869.00;;;2.10
15062;BMP180;7630;50.306;8.566;2023-04-03T23:31:09;98868.00;;;2.10
15062;BMP180;7630;50.306;8.566;2023-04-03T23:35:10;98862.00;;;3.20
15062;BMP180;7630;50.306;8.566;2023-04-03T23:39:11;98870.00;;;1.70
15062;BMP180;7630;50.306;8.566;2023-04-03T23:43:12;98869.00;;;2.10
15062;BMP180;7630;50.306;8.566;2023-04-03T23:47:13;98876.00;;;3.00
15062;BMP180;7630;50.306;8.566;2023-04-03T23:51:14;98864.00;;;2.90
15062;BMP180;7630;50.306;8.566;2023-04-03T23:55:16;98858.00;;;3.10
15062;BMP180;7630;50.306;8.566;2023-04-03T23:59:17;98859.00;;;3.50
